Tomás Morales

Recruteur - Huracán
20 Nov 2027
Samedi
Processus

Personnalité

Adaptabilité (17) Ambition (16) Controverse (7) Loyauté (19) Pression (15) Professionnalisme (1) Sportivité (3) Tempérament (10)

Profil

Style d'entraînement Démocratique
Diplôme Continental C
Détermination 10
Gestion des joueurs 11
Motivation 12
Discipline 10
Satisfaction professionnelle
92%
Fatigue
0%
Rôle Recruteur
Salaire 36.1K p/s
Contrat 14.03.2029

Performance

Comportement Bon
Efficacité de l'entraînement
44%
Développement des joueurs
65%
Prévention des blessures
30%
Mise en place tactique
65%

Événements récents

A participé à une réunion de recrutement maintenant
A recommandé une cible de transfert maintenant
A participé à une réunion de recrutement 7j
A recommandé une cible de transfert 7j
A participé à une réunion de recrutement 7j
A participé à une réunion de recrutement 7j
A participé à une réunion de recrutement 14j
A participé à une réunion de recrutement 14j

Suivi en cours

176
Joueur Club Statut Capacité Confiance Observé Dernière observation Dernier vote
Federico Pérez Agropecuario Argentino Actif 109 / 125 79% 1 12.07.2027 Approuver
Luca Arfaras San Martín Actif 102 / 107 30% 1 / 1m 09.06.2027 -
Tyrell Malacia Derby County Actif 140 / 145 40% 4 28.05.2027 -
Quinten Timber Crystal Palace Actif 159 / 159 40% 6 28.05.2027 -
Nobel Mendy Hull City Actif 141 / 119 40% 2 28.05.2027 -
Joel Orlando Real Sociedad Actif 109 / 122 40% 2 27.05.2027 -
Juanlu Bournemouth Actif 148 / 150 40% 2 27.05.2027 -
Luke McNally Bristol City Actif 136 / 125 40% 2 27.05.2027 -
André Wolverhampton Actif 142 / 157 40% 3 27.05.2027 -
Joseph Liteta Parma Actif 100 / 122 40% 1 27.05.2027 -
Ricardo Solbes Getafe Actif 105 / 91 40% 1 27.05.2027 -
Brooke Norton-Cuffy Hull City Actif 140 / 133 40% 4 25.05.2027 -
Tim Iroegbunam Hull City Actif 137 / 150 40% 4 25.05.2027 -
Ethan Galbraith Swansea City Actif 132 / 117 40% 3 24.05.2027 -
Pelle Mattsson Norwich City Actif 117 / 116 40% 1 24.05.2027 -
Adam Wharton Crystal Palace Actif 153 / 149 40% 2 23.05.2027 Plus d'infos
Bosun Lawal Stoke City Actif 123 / 118 40% 1 23.05.2027 -
Mfundo Vilakazi Kaizer Chiefs Actif 108 / 130 40% 3 21.05.2027 -
Enzo Barrenechea Burnley Actif 146 / 138 40% 3 21.05.2027 Observer
Kirill Glebov CSKA Moscow Actif 134 / 125 40% 2 21.05.2027 -
Facundo Di Biasi Getafe Actif 123 / 125 40% 3 20.05.2027 -
Matías Gómez Valencia Actif 109 / 106 40% 4 20.05.2027 -
Bazoumana Touré Newcastle United Actif 131 / 128 40% 3 20.05.2027 -
Nicolás Azambuja Danubio Actif 112 / 126 40% 2 20.05.2027 -
Lautaro Gutiérrez Girona Actif 101 / 102 40% 2 20.05.2027 -
Facundo Balatti Penarol Actif 98 / 116 40% 3 18.05.2027 -
Othmane Maamma Watford Actif 121 / 144 40% 2 17.05.2027 -
Ronwen Khune Black Aces Actif 103 / 93 40% 2 17.05.2027 -
Max Johnston Derby County Actif 133 / 122 40% 2 16.05.2027 -
Yasin Ayari Brighton Actif 137 / 154 40% 2 16.05.2027 -
Oliver Arblaster Sheffield United Actif 134 / 123 40% 1 16.05.2027 -
Welington Southampton Actif 126 / 122 40% 2 15.05.2027 -
Álex Valle Como Actif 136 / 129 40% 2 15.05.2027 -
Manu Rodríguez Gijón Actif 97 / 97 40% 3 13.05.2027 -
Benjamin Tsivanyo Aduana Stars Actif 87 / 108 40% 1 13.05.2027 -
Borna Knezović Casarano Actif 99 / 118 40% 1 13.05.2027 -
Diego Cheuquepal Racing Actif 100 / 95 40% 1 13.05.2027 -
Leonardo Mendicino Bari Actif 120 / 119 40% 1 13.05.2027 -
Matías Canedo Rampla Juniors Actif 85 / 81 40% 1 13.05.2027 -
Max Bird Birmingham Actif 133 / 128 40% 3 11.05.2027 -
Alfie Gilchrist West Bromwich Albion Actif 124 / 111 40% 1 11.05.2027 -
Adrien Truffert Bournemouth Actif 144 / 134 40% 2 10.05.2027 -
Aidan Morris Middlesbrough Actif 129 / 121 40% 1 10.05.2027 -
Alex Scott Bournemouth Actif 153 / 139 40% 7 09.05.2027 Observer
James Garner Everton Actif 158 / 148 40% 2 09.05.2027 -
Sebastián Flores Rayo Vallecano Actif 97 / 118 40% 3 08.05.2027 -
Gonçalo Oliveira Benfica Actif 112 / 131 40% 2 08.05.2027 -
Jaydee Canvot Liverpool Actif 130 / 141 40% 1 08.05.2027 -
Harry Clarke Preston Actif 133 / 120 40% 1 08.05.2027 -
Mats Wieffer Brighton Actif 156 / 163 40% 2 06.05.2027 Plus d'infos
Nathan Collins Brentford Actif 151 / 133 40% 3 05.05.2027 Observer
Caleb Yirenkyi Coventry City Actif 132 / 148 40% 3 03.05.2027 -
Luis Rincon Atletico Venezuela Actif 93 / 97 40% 1 03.05.2027 -
Oscar Schwartau Norwich City Actif 123 / 144 40% 2 01.05.2027 -
Monty Batlhabane Polokwane City Actif 98 / 83 40% 1 01.05.2027 -
Gladson Sulemana Liberty Professionals Actif 89 / 104 40% 2 30.04.2027 -
Gorka Gorosabel Real Sociedad Actif 105 / 132 40% 4 30.04.2027 -
Zahir Ibarra Elche Actif 100 / 106 40% 2 30.04.2027 -
André Miranda Porto Actif 95 / 117 40% 1 30.04.2027 -
Christos Mouzakitis Hull City Actif 131 / 132 40% 1 30.04.2027 -
Thiago Silvero Sevilla Actif 121 / 129 40% 1 30.04.2027 -
Bobby Thomas Coventry City Actif 127 / 117 40% 3 28.04.2027 -
Oumar Camara Vitoria Guimaraes Actif 127 / 118 40% 2 27.04.2027 -
Roger François Udinese Actif 142 / 127 40% 1 27.04.2027 -
Alex Verón Villarreal Actif 109 / 119 40% 1 26.04.2027 -
Marcos Arias Deportivo Municipal Actif 91 / 93 40% 1 26.04.2027 -
Rico Lewis Manchester City Actif 144 / 161 40% 2 25.04.2027 -
Geanfranco Rodríguez Defensor Sporting Actif 88 / 110 40% 1 25.04.2027 -
Mohammed Wakaso Hasaacas Actif 90 / 103 40% 1 23.04.2027 -
Shea Charles Southampton Actif 137 / 125 40% 4 19.04.2027 -
Teden Mengi Luton Town Actif 118 / 140 40% 1 19.04.2027 -
Sindre Walle Egeli Nottingham Forest Actif 134 / 143 40% 1 18.04.2027 -
Habib Diarra Sunderland Actif 140 / 127 40% 2 16.04.2027 -
Neco Williams Nottingham Forest Actif 149 / 130 40% 2 12.04.2027 -
Oliver Skipp Leicester City Actif 136 / 139 40% 2 11.04.2027 -
Sam Curtis Swindon Town Actif 107 / 97 40% 2 10.04.2027 -
Daniel Awuni Aduana Stars Actif 99 / 80 40% 1 10.04.2027 -
Nestory Irankunda Watford Actif 113 / 135 40% 1 10.04.2027 -
Sergio Castillo Cortulua Actif 101 / 105 40% 1 10.04.2027 -
Surprise Manthosi Polokwane City Actif 88 / 99 40% 1 10.04.2027 -
Jordan Beyer Burnley Actif 136 / 143 40% 1 07.04.2027 -
Nicolò Rovella Lazio Actif 143 / 162 40% 1 03.04.2027 -
Lucas Da Cunha Como Actif 144 / 156 40% 2 02.04.2027 -
Ignacio Perruzzi Celta Actif 117 / 121 40% 2 01.04.2027 -
Ramón Terrats Getafe Actif 143 / 144 40% 1 01.04.2027 -
Jacob Greaves Ipswich Town Actif 143 / 141 40% 1 30.03.2027 -
Tobías Andrada Betis Actif 111 / 134 40% 1 30.03.2027 -
Jarrad Branthwaite Everton Actif 160 / 151 40% 1 26.03.2027 -
Milan van Ewijk Coventry City Actif 125 / 132 40% 2 24.03.2027 -
Raoul Bellanova Atalanta Actif 152 / 139 40% 1 24.03.2027 -
Ethan Ampadu Leeds United Actif 143 / 130 40% 1 22.03.2027 -
Isma Ruiz Córdoba Actif 135 / 140 40% 1 22.03.2027 -
Ousmane Diakité West Bromwich Albion Actif 132 / 113 40% 1 20.03.2027 -
Ferdi Kadıoğlu Brighton Actif 144 / 130 40% 1 19.03.2027 -
Tariq Lamptey Queens Park Rangers Actif 135 / 151 40% 1 18.03.2027 -
Adam Randell Bristol City Actif 125 / 117 40% 1 16.03.2027 -
Odilon Kossounou Atalanta Actif 148 / 158 40% 1 13.03.2027 -
Japhet Tanganga Sheffield United Actif 128 / 113 40% 1 08.03.2027 -
Anel Ahmedhodžić Burnley Actif 133 / 115 40% 1 08.03.2027 -
Marcelo Camargo Alavés Actif 100 / 121 40% 1 07.03.2027 -
Nico O'Reilly Manchester City Actif 160 / 155 40% 1 06.03.2027 -
Jeremías Merlo AC Milan Actif 123 / 130 40% 2 04.03.2027 -
Michael Kayode Brentford Actif 148 / 163 40% 1 02.03.2027 -
Alan Velasco Boca Juniors Actif 131 / 125 40% 2 27.11.2026 -
Xavier Biscayzacú Sporting CP Actif 118 / 139 40% 1 27.11.2026 -
Luca Langoni New England Revolution Actif 125 / 126 40% 5 26.11.2026 -
Santiago Pierotti Lecce Actif 137 / 120 40% 1 26.11.2026 -
Esequiel Barco Spartak Moscow Actif 133 / 127 40% 3 25.11.2026 -
Leandro Godoy CSKA Sofia Actif 130 / 123 40% 2 25.11.2026 -
Jeon Jin-Woo Sheffield Wednesday Actif 141 / 110 40% 1 25.11.2026 -
George Hirst Stoke City Actif 138 / 131 40% 1 25.11.2026 -
Aidomo Emakhu Oxford United Actif 119 / 105 40% 1 21.11.2026 -
Ramiro Ruiz Rodríguez Atlético Tucumán Actif 126 / 112 40% 3 20.11.2026 -
Carlos Palacios Boca Juniors Actif 125 / 129 40% 2 20.11.2026 -
Francisco Bareiro Vaduz Actif 110 / 114 40% 1 20.11.2026 -
Alejo Cruz Juventud Actif 120 / 127 40% 1 20.11.2026 -
Juan Manuel Boselli Krasnodar Actif 114 / 105 40% 1 20.11.2026 -
Joaquín Pereyra Minnesota United FC Actif 133 / 123 40% 5 19.11.2026 -
Relebohile Mofokeng Orlando Pirates Actif 117 / 127 40% 1 19.11.2026 -
Santiago Toloza O'Higgins Actif 123 / 116 40% 5 18.11.2026 -
Juan Velázquez Atlético Madrid Actif 130 / 112 40% 1 18.11.2026 -
Franco Watson Lanús Actif 123 / 109 40% 2 16.11.2026 -
David Miculescu FCSB Actif 124 / 128 40% 3 14.11.2026 -
Matías Fernández Independiente Rivadavia Actif 116 / 114 40% 1 14.11.2026 -
Bautista Tomatis Racing Actif 102 / 124 40% 3 13.11.2026 -
Richard Koné Queens Park Rangers Actif 131 / 131 40% 1 13.11.2026 -
Martín Ojeda Orlando City Actif 127 / 117 40% 6 12.11.2026 -
Facundo Batista Penarol Actif 122 / 121 40% 1 06.11.2026 -
Aarón Molinas Defensa y Justicia Actif 128 / 133 40% 1 05.11.2026 -
Facundo de León Progreso Actif 110 / 119 40% 1 05.11.2026 -
Troy Parrott Betis Actif 129 / 126 40% 1 04.11.2026 -
Agustín Kahl Racing Actif 100 / 115 40% 1 04.11.2026 -
Lucas Acosta Liverpool Montevideo Actif 115 / 103 40% 1 04.11.2026 -
Joaquín García Vélez Actif 120 / 114 40% 1 02.11.2026 -
Tomás Chancalay Minnesota United FC Actif 129 / 116 40% 3 01.11.2026 -
Felipe Peña Biafore Lanús Actif 131 / 139 40% 1 30.10.2026 -
Agustín Paz Progreso Actif 117 / 122 40% 2 26.10.2026 -
Franco Ibarra Rosario Central Actif 132 / 141 40% 1 26.10.2026 -
Santiago Montiel Independiente Actif 122 / 131 40% 1 26.10.2026 -
Andrés Herrera Columbus Crew Actif 115 / 138 40% 2 24.10.2026 -
Damián Puebla Orenburg Actif 122 / 141 40% 2 24.10.2026 -
Leandro Lozano Boca Juniors Actif 125 / 126 40% 1 24.10.2026 -
Rumarn Burrell Queens Park Rangers Actif 126 / 128 40% 2 22.10.2026 -
Dejan Joveljić Seattle Sounders Actif 127 / 143 40% 1 18.10.2026 -
Tomás Galván River Plate Actif 126 / 127 40% 1 18.10.2026 -
Ronald Swansea City Actif 131 / 132 40% 1 16.10.2026 -
Javier Altamirano Universidad de Chile Actif 125 / 128 40% 1 16.10.2026 -
Gastón Benedetti Estudiantes Actif 127 / 134 40% 1 15.10.2026 -
Tomás Escalante Plaza Colonia Actif 122 / 108 40% 1 14.10.2026 -
Pablo Solari Spartak Moscow Actif 136 / 144 40% 2 13.10.2026 -
Joaquín Gho Argentinos Juniors Actif 125 / 112 40% 1 13.10.2026 -
Talles Magno New York City Actif 128 / 132 40% 1 12.10.2026 -
Wessam Abou Ali Columbus Crew Actif 122 / 147 40% 2 09.10.2026 -
Clemente Montes Universidad Catolica Actif 125 / 132 40% 1 09.10.2026 -
Enzo Loiodice KAA Gent Actif 128 / 138 40% 1 05.10.2026 -
Helinho Toluca Actif 138 / 111 40% 1 05.10.2026 -
Federico Girotti Alianza Lima Actif 127 / 110 40% 2 03.10.2026 -
Jefry Zapata Once Caldas Actif 121 / 124 40% 1 30.09.2026 -
Luca Martínez Dupuy Godoy Cruz Actif 115 / 129 40% 1 30.09.2026 -
Ruyery Blanco Alianza Petrolera Actif 105 / 114 40% 1 30.09.2026 -
Patrick Preciado Deportivo Pasto Actif 98 / 113 40% 1 29.09.2026 -
Iván Maggi Sportivo Luqueno Actif 113 / 118 40% 1 27.09.2026 -
Maximiliano Rodríguez Huachipato Actif 119 / 105 40% 2 21.09.2026 -
Juan David Rueda Alianza Petrolera Actif 106 / 114 40% 1 20.09.2026 -
Mauro Valiente Chiapas Actif 115 / 96 40% 1 19.09.2026 -
Alexander Díaz Deportivo Riestra Actif 123 / 122 40% 1 13.09.2026 -
Diego Lainez Tigres Actif 138 / 115 40% 1 10.09.2026 -
Juan Pablo Domínguez Leon Actif 129 / 107 40% 1 10.09.2026 -
Francisco Galván Deportivo Municipal Actif 113 / 105 40% 1 07.09.2026 -
Emiliano Saliadarre Miramar Misiones Actif 112 / 111 40% 1 07.09.2026 -
Franco Pérez Boston River Actif 108 / 105 40% 1 07.09.2026 -
Milton Zanotti Almirante Brown Actif 100 / 103 30% 1 / 1m 19.08.2026 -
Diego Rossi Monterrey Actif 130 / 126 40% 1 04.08.2026 -
Alex Valera Universitario Actif 126 / 118 40% 1 04.08.2026 -
Nicolás Fernández Belgrano Actif 123 / 117 40% 1 03.08.2026 -
Gerardo Arteaga Monterrey Actif 119 / 142 40% 1 02.08.2026 -